sensor_id;sensor_type;location;lat;lon;timestamp;P1;durP1;ratioP1;P2;durP2;ratioP2
26435;SDS011;15351;52.408;16.826;2023-08-12T00:00:18;16.50;;;7.70;;
26435;SDS011;15351;52.408;16.826;2023-08-12T00:06:23;13.30;;;7.50;;
26435;SDS011;15351;52.408;16.826;2023-08-12T00:08:50;15.10;;;7.40;;
26435;SDS011;15351;52.408;16.826;2023-08-12T00:14:11;13.20;;;6.90;;
26435;SDS011;15351;52.408;16.826;2023-08-12T00:16:39;12.30;;;6.90;;
26435;SDS011;15351;52.408;16.826;2023-08-12T00:19:16;13.60;;;7.30;;
26435;SDS011;15351;52.408;16.826;2023-08-12T00:21:50;12.80;;;7.30;;
26435;SDS011;15351;52.408;16.826;2023-08-12T00:24:29;14.00;;;6.70;;
26435;SDS011;15351;52.408;16.826;2023-08-12T00:27:06;12.10;;;6.50;;
26435;SDS011;15351;52.408;16.826;2023-08-12T00:29:58;12.00;;;6.40;;
26435;SDS011;15351;52.408;16.826;2023-08-12T00:32:59;10.20;;;6.80;;
26435;SDS011;15351;52.408;16.826;2023-08-12T00:35:49;11.20;;;6.70;;
26435;SDS011;15351;52.408;16.826;2023-08-12T00:38:35;11.60;;;6.40;;
26435;SDS011;15351;52.408;16.826;2023-08-12T00:41:03;9.00;;;5.70;;
26435;SDS011;15351;52.408;16.826;2023-08-12T00:43:38;9.70;;;6.30;;
26435;SDS011;15351;52.408;16.826;2023-08-12T00:46:46;10.80;;;6.80;;
26435;SDS011;15351;52.408;16.826;2023-08-12T00:49:53;10.20;;;6.20;;
26435;SDS011;15351;52.408;16.826;2023-08-12T00:56:14;10.10;;;6.40;;
26435;SDS011;15351;52.408;16.826;2023-08-12T00:59:18;9.90;;;6.40;;
26435;SDS011;15351;52.408;16.826;2023-08-12T01:05:44;11.40;;;6.20;;
26435;SDS011;15351;52.408;16.826;2023-08-12T01:12:32;11.60;;;6.90;;
26435;SDS011;15351;52.408;16.826;2023-08-12T01:15:51;12.50;;;7.50;;
26435;SDS011;15351;52.408;16.826;2023-08-12T01:18:45;11.80;;;7.00;;
26435;SDS011;15351;52.408;16.826;2023-08-12T01:31:42;13.20;;;7.00;;
26435;SDS011;15351;52.408;16.826;2023-08-12T01:34:46;9.90;;;6.10;;
26435;SDS011;15351;52.408;16.826;2023-08-12T01:40:25;13.00;;;7.10;;
26435;SDS011;15351;52.408;16.826;2023-08-12T01:43:05;9.60;;;6.60;;
26435;SDS011;15351;52.408;16.826;2023-08-12T01:45:36;11.60;;;6.80;;
26435;SDS011;15351;52.408;16.826;2023-08-12T01:48:06;8.20;;;5.90;;
26435;SDS011;15351;52.408;16.826;2023-08-12T01:50:37;9.00;;;6.00;;
26435;SDS011;15351;52.408;16.826;2023-08-12T01:53:07;13.00;;;6.70;;
26435;SDS011;15351;52.408;16.826;2023-08-12T01:55:42;9.40;;;6.70;;
26435;SDS011;15351;52.408;16.826;2023-08-12T01:58:35;11.50;;;6.50;;
26435;SDS011;15351;52.408;16.826;2023-08-12T02:01:19;10.00;;;6.10;;
26435;SDS011;15351;52.408;16.826;2023-08-12T02:04:07;9.30;;;6.20;;
26435;SDS011;15351;52.408;16.826;2023-08-12T02:06:44;9.10;;;6.60;;
26435;SDS011;15351;52.408;16.826;2023-08-12T02:09:31;9.20;;;6.70;;
26435;SDS011;15351;52.408;16.826;2023-08-12T02:12:04;11.50;;;6.30;;
26435;SDS011;15351;52.408;16.826;2023-08-12T02:14:35;7.70;;;6.20;;
26435;SDS011;15351;52.408;16.826;2023-08-12T02:17:12;11.80;;;6.60;;
26435;SDS011;15351;52.408;16.826;2023-08-12T02:19:49;10.20;;;7.00;;
26435;SDS011;15351;52.408;16.826;2023-08-12T02:22:21;8.70;;;6.60;;
26435;SDS011;15351;52.408;16.826;2023-08-12T02:25:27;10.90;;;6.40;;
26435;SDS011;15351;52.408;16.826;2023-08-12T02:28:06;9.60;;;6.60;;
26435;SDS011;15351;52.408;16.826;2023-08-12T02:30:38;11.00;;;7.70;;
26435;SDS011;15351;52.408;16.826;2023-08-12T02:33:17;10.70;;;7.60;;
26435;SDS011;15351;52.408;16.826;2023-08-12T02:35:55;11.70;;;7.60;;
26435;SDS011;15351;52.408;16.826;2023-08-12T02:38:22;10.20;;;7.80;;
26435;SDS011;15351;52.408;16.826;2023-08-12T02:40:58;9.00;;;7.30;;
26435;SDS011;15351;52.408;16.826;2023-08-12T02:43:37;10.70;;;8.00;;
26435;SDS011;15351;52.408;16.826;2023-08-12T02:46:22;13.40;;;8.60;;
26435;SDS011;15351;52.408;16.826;2023-08-12T02:48:50;12.00;;;8.50;;
26435;SDS011;15351;52.408;16.826;2023-08-12T02:51:17;10.80;;;7.40;;
26435;SDS011;15351;52.408;16.826;2023-08-12T02:53:44;11.20;;;7.60;;
26435;SDS011;15351;52.408;16.826;2023-08-12T02:56:11;9.80;;;7.50;;
26435;SDS011;15351;52.408;16.826;2023-08-12T02:58:41;10.90;;;8.00;;
26435;SDS011;15351;52.408;16.826;2023-08-12T03:01:22;11.50;;;8.10;;
26435;SDS011;15351;52.408;16.826;2023-08-12T03:04:15;10.90;;;7.20;;
26435;SDS011;15351;52.408;16.826;2023-08-12T03:06:53;11.50;;;7.50;;
26435;SDS011;15351;52.408;16.826;2023-08-12T03:09:47;11.50;;;8.90;;
26435;SDS011;15351;52.408;16.826;2023-08-12T03:12:50;13.20;;;8.80;;
26435;SDS011;15351;52.408;16.826;2023-08-12T03:15:47;13.20;;;8.50;;
26435;SDS011;15351;52.408;16.826;2023-08-12T03:18:23;12.40;;;7.50;;
26435;SDS011;15351;52.408;16.826;2023-08-12T03:20:51;12.80;;;8.10;;
26435;SDS011;15351;52.408;16.826;2023-08-12T03:23:18;13.50;;;8.90;;
26435;SDS011;15351;52.408;16.826;2023-08-12T03:25:46;14.00;;;9.00;;
26435;SDS011;15351;52.408;16.826;2023-08-12T03:28:17;14.00;;;9.10;;
26435;SDS011;15351;52.408;16.826;2023-08-12T03:31:03;10.10;;;7.90;;
26435;SDS011;15351;52.408;16.826;2023-08-12T03:33:39;12.10;;;8.70;;
26435;SDS011;15351;52.408;16.826;2023-08-12T03:36:14;13.10;;;8.80;;
26435;SDS011;15351;52.408;16.826;2023-08-12T03:38:44;11.60;;;8.80;;
26435;SDS011;15351;52.408;16.826;2023-08-12T03:41:15;13.30;;;9.00;;
26435;SDS011;15351;52.408;16.826;2023-08-12T03:43:54;11.10;;;8.10;;
26435;SDS011;15351;52.408;16.826;2023-08-12T03:46:33;13.70;;;8.20;;
26435;SDS011;15351;52.408;16.826;2023-08-12T03:49:26;13.50;;;9.70;;
26435;SDS011;15351;52.408;16.826;2023-08-12T03:51:53;12.80;;;9.00;;
26435;SDS011;15351;52.408;16.826;2023-08-12T03:54:20;12.80;;;8.70;;
26435;SDS011;15351;52.408;16.826;2023-08-12T03:56:53;11.70;;;8.20;;
26435;SDS011;15351;52.408;16.826;2023-08-12T03:59:34;11.20;;;8.00;;
26435;SDS011;15351;52.408;16.826;2023-08-12T04:02:09;11.60;;;8.70;;
26435;SDS011;15351;52.408;16.826;2023-08-12T04:04:49;13.80;;;8.80;;
26435;SDS011;15351;52.408;16.826;2023-08-12T04:07:20;9.80;;;8.30;;
26435;SDS011;15351;52.408;16.826;2023-08-12T04:10:14;10.60;;;7.90;;
26435;SDS011;15351;52.408;16.826;2023-08-12T04:13:03;10.60;;;7.60;;
26435;SDS011;15351;52.408;16.826;2023-08-12T04:15:48;12.20;;;8.80;;
26435;SDS011;15351;52.408;16.826;2023-08-12T04:18:37;10.50;;;8.40;;
26435;SDS011;15351;52.408;16.826;2023-08-12T04:21:58;14.10;;;8.20;;
26435;SDS011;15351;52.408;16.826;2023-08-12T04:24:42;9.00;;;7.30;;
26435;SDS011;15351;52.408;16.826;2023-08-12T04:27:38;10.70;;;8.10;;
26435;SDS011;15351;52.408;16.826;2023-08-12T04:30:07;12.10;;;8.40;;
26435;SDS011;15351;52.408;16.826;2023-08-12T04:33:05;10.60;;;7.80;;
26435;SDS011;15351;52.408;16.826;2023-08-12T04:35:39;9.70;;;7.60;;
26435;SDS011;15351;52.408;16.826;2023-08-12T04:38:20;13.60;;;7.60;;
26435;SDS011;15351;52.408;16.826;2023-08-12T04:43:54;11.60;;;8.10;;
26435;SDS011;15351;52.408;16.826;2023-08-12T04:46:23;12.30;;;7.90;;
26435;SDS011;15351;52.408;16.826;2023-08-12T04:48:52;9.80;;;7.40;;
26435;SDS011;15351;52.408;16.826;2023-08-12T04:51:22;8.30;;;6.80;;
26435;SDS011;15351;52.408;16.826;2023-08-12T04:53:49;10.70;;;7.70;;
26435;SDS011;15351;52.408;16.826;2023-08-12T04:56:16;14.40;;;7.50;;
26435;SDS011;15351;52.408;16.826;2023-08-12T04:59:10;13.20;;;7.70;;
26435;SDS011;15351;52.408;16.826;2023-08-12T05:04:39;11.70;;;7.90;;
26435;SDS011;15351;52.408;16.826;2023-08-12T05:07:10;13.00;;;7.90;;
26435;SDS011;15351;52.408;16.826;2023-08-12T05:09:48;13.30;;;8.70;;
26435;SDS011;15351;52.408;16.826;2023-08-12T05:16:19;14.50;;;9.30;;
26435;SDS011;15351;52.408;16.826;2023-08-12T05:19:06;12.80;;;8.60;;
26435;SDS011;15351;52.408;16.826;2023-08-12T05:21:44;11.40;;;8.60;;
26435;SDS011;15351;52.408;16.826;2023-08-12T05:27:14;13.50;;;9.30;;
26435;SDS011;15351;52.408;16.826;2023-08-12T05:29:59;14.40;;;9.40;;
26435;SDS011;15351;52.408;16.826;2023-08-12T05:33:03;11.50;;;7.60;;
26435;SDS011;15351;52.408;16.826;2023-08-12T05:35:50;10.50;;;8.10;;
26435;SDS011;15351;52.408;16.826;2023-08-12T05:38:50;12.90;;;8.60;;
26435;SDS011;15351;52.408;16.826;2023-08-12T05:44:42;11.60;;;7.00;;
26435;SDS011;15351;52.408;16.826;2023-08-12T05:52:58;10.90;;;7.80;;
26435;SDS011;15351;52.408;16.826;2023-08-12T05:55:25;11.70;;;7.50;;
26435;SDS011;15351;52.408;16.826;2023-08-12T05:57:52;10.00;;;6.60;;
26435;SDS011;15351;52.408;16.826;2023-08-12T06:00:19;10.90;;;6.80;;
26435;SDS011;15351;52.408;16.826;2023-08-12T06:02:55;10.70;;;6.70;;
26435;SDS011;15351;52.408;16.826;2023-08-12T06:05:34;11.30;;;7.50;;
26435;SDS011;15351;52.408;16.826;2023-08-12T06:08:01;10.10;;;7.00;;
26435;SDS011;15351;52.408;16.826;2023-08-12T06:10:28;11.10;;;7.40;;
26435;SDS011;15351;52.408;16.826;2023-08-12T06:12:55;11.60;;;7.20;;
26435;SDS011;15351;52.408;16.826;2023-08-12T06:15:25;8.50;;;5.90;;
26435;SDS011;15351;52.408;16.826;2023-08-12T06:17:52;9.20;;;6.30;;
26435;SDS011;15351;52.408;16.826;2023-08-12T06:20:19;10.00;;;6.40;;
26435;SDS011;15351;52.408;16.826;2023-08-12T06:22:46;10.00;;;6.40;;
26435;SDS011;15351;52.408;16.826;2023-08-12T06:25:13;10.00;;;6.80;;
26435;SDS011;15351;52.408;16.826;2023-08-12T06:27:40;11.80;;;6.80;;
26435;SDS011;15351;52.408;16.826;2023-08-12T06:30:09;8.50;;;6.10;;
26435;SDS011;15351;52.408;16.826;2023-08-12T06:33:13;11.00;;;6.70;;
26435;SDS011;15351;52.408;16.826;2023-08-12T06:35:54;9.00;;;6.30;;
26435;SDS011;15351;52.408;16.826;2023-08-12T06:38:21;12.00;;;6.40;;
26435;SDS011;15351;52.408;16.826;2023-08-12T06:40:52;8.90;;;6.20;;
26435;SDS011;15351;52.408;16.826;2023-08-12T06:43:43;7.60;;;5.90;;
26435;SDS011;15351;52.408;16.826;2023-08-12T06:46:21;9.90;;;6.10;;
26435;SDS011;15351;52.408;16.826;2023-08-12T06:48:59;10.80;;;5.90;;
26435;SDS011;15351;52.408;16.826;2023-08-12T06:51:26;8.70;;;6.30;;
26435;SDS011;15351;52.408;16.826;2023-08-12T06:53:55;9.40;;;5.80;;
26435;SDS011;15351;52.408;16.826;2023-08-12T06:56:25;8.60;;;6.40;;
26435;SDS011;15351;52.408;16.826;2023-08-12T06:59:00;7.60;;;5.90;;
26435;SDS011;15351;52.408;16.826;2023-08-12T07:01:33;7.60;;;5.60;;
26435;SDS011;15351;52.408;16.826;2023-08-12T07:04:00;6.90;;;5.30;;
26435;SDS011;15351;52.408;16.826;2023-08-12T07:06:30;10.20;;;5.80;;
26435;SDS011;15351;52.408;16.826;2023-08-12T07:09:03;9.70;;;6.00;;
26435;SDS011;15351;52.408;16.826;2023-08-12T07:11:52;6.90;;;5.40;;
26435;SDS011;15351;52.408;16.826;2023-08-12T07:14:26;9.40;;;5.80;;
26435;SDS011;15351;52.408;16.826;2023-08-12T07:16:55;7.90;;;5.80;;
26435;SDS011;15351;52.408;16.826;2023-08-12T07:19:26;8.40;;;5.90;;
26435;SDS011;15351;52.408;16.826;2023-08-12T07:22:10;8.00;;;5.20;;
26435;SDS011;15351;52.408;16.826;2023-08-12T07:24:38;7.30;;;5.00;;
26435;SDS011;15351;52.408;16.826;2023-08-12T07:27:16;8.60;;;4.90;;
26435;SDS011;15351;52.408;16.826;2023-08-12T07:29:49;8.10;;;4.70;;
26435;SDS011;15351;52.408;16.826;2023-08-12T07:32:37;9.80;;;5.20;;
26435;SDS011;15351;52.408;16.826;2023-08-12T07:38:34;7.90;;;5.00;;
26435;SDS011;15351;52.408;16.826;2023-08-12T07:41:05;8.30;;;4.80;;
26435;SDS011;15351;52.408;16.826;2023-08-12T07:43:53;8.00;;;4.70;;
26435;SDS011;15351;52.408;16.826;2023-08-12T07:46:25;8.00;;;4.70;;
26435;SDS011;15351;52.408;16.826;2023-08-12T07:49:06;6.40;;;4.90;;
26435;SDS011;15351;52.408;16.826;2023-08-12T07:51:37;7.40;;;4.20;;
26435;SDS011;15351;52.408;16.826;2023-08-12T07:54:31;7.40;;;4.30;;
26435;SDS011;15351;52.408;16.826;2023-08-12T07:57:22;6.30;;;4.10;;
26435;SDS011;15351;52.408;16.826;2023-08-12T08:00:02;6.90;;;3.80;;
26435;SDS011;15351;52.408;16.826;2023-08-12T08:02:42;6.60;;;4.00;;
26435;SDS011;15351;52.408;16.826;2023-08-12T08:05:12;7.60;;;4.10;;
26435;SDS011;15351;52.408;16.826;2023-08-12T08:07:39;6.70;;;3.90;;
26435;SDS011;15351;52.408;16.826;2023-08-12T08:10:07;6.40;;;3.80;;
26435;SDS011;15351;52.408;16.826;2023-08-12T08:12:36;5.40;;;3.50;;
26435;SDS011;15351;52.408;16.826;2023-08-12T08:15:05;6.00;;;3.80;;
26435;SDS011;15351;52.408;16.826;2023-08-12T08:17:36;6.80;;;4.00;;
26435;SDS011;15351;52.408;16.826;2023-08-12T08:20:18;5.90;;;3.50;;
26435;SDS011;15351;52.408;16.826;2023-08-12T08:22:49;7.00;;;3.50;;
26435;SDS011;15351;52.408;16.826;2023-08-12T08:25:26;5.60;;;3.40;;
26435;SDS011;15351;52.408;16.826;2023-08-12T08:27:53;6.40;;;3.40;;
26435;SDS011;15351;52.408;16.826;2023-08-12T08:30:36;5.80;;;3.40;;
26435;SDS011;15351;52.408;16.826;2023-08-12T08:33:06;4.90;;;3.20;;
26435;SDS011;15351;52.408;16.826;2023-08-12T08:35:42;4.30;;;3.20;;
26435;SDS011;15351;52.408;16.826;2023-08-12T08:38:15;6.30;;;3.20;;
26435;SDS011;15351;52.408;16.826;2023-08-12T08:40:44;7.30;;;3.40;;
26435;SDS011;15351;52.408;16.826;2023-08-12T08:43:28;6.00;;;3.20;;
26435;SDS011;15351;52.408;16.826;2023-08-12T08:45:56;5.50;;;3.20;;
26435;SDS011;15351;52.408;16.826;2023-08-12T08:48:49;4.90;;;3.20;;
26435;SDS011;15351;52.408;16.826;2023-08-12T08:51:18;4.00;;;3.20;;
26435;SDS011;15351;52.408;16.826;2023-08-12T08:53:58;4.90;;;3.40;;
26435;SDS011;15351;52.408;16.826;2023-08-12T08:56:28;4.40;;;3.10;;
26435;SDS011;15351;52.408;16.826;2023-08-12T08:59:04;4.90;;;3.00;;
26435;SDS011;15351;52.408;16.826;2023-08-12T09:01:35;5.10;;;3.30;;
26435;SDS011;15351;52.408;16.826;2023-08-12T09:04:41;5.20;;;3.00;;
26435;SDS011;15351;52.408;16.826;2023-08-12T09:07:18;4.60;;;3.00;;
26435;SDS011;15351;52.408;16.826;2023-08-12T09:10:22;4.40;;;2.90;;
26435;SDS011;15351;52.408;16.826;2023-08-12T09:12:54;5.20;;;3.10;;
26435;SDS011;15351;52.408;16.826;2023-08-12T09:15:57;4.70;;;3.10;;
26435;SDS011;15351;52.408;16.826;2023-08-12T09:18:22;3.70;;;3.10;;
26435;SDS011;15351;52.408;16.826;2023-08-12T09:20:51;5.40;;;3.10;;
26435;SDS011;15351;52.408;16.826;2023-08-12T09:23:46;5.50;;;2.90;;
26435;SDS011;15351;52.408;16.826;2023-08-12T09:26:28;3.80;;;2.80;;
26435;SDS011;15351;52.408;16.826;2023-08-12T09:28:58;5.40;;;3.20;;
26435;SDS011;15351;52.408;16.826;2023-08-12T09:31:45;5.60;;;2.80;;
26435;SDS011;15351;52.408;16.826;2023-08-12T09:34:21;6.10;;;3.00;;
26435;SDS011;15351;52.408;16.826;2023-08-12T09:36:51;6.50;;;2.90;;
26435;SDS011;15351;52.408;16.826;2023-08-12T09:39:18;5.50;;;2.80;;
26435;SDS011;15351;52.408;16.826;2023-08-12T09:41:49;4.50;;;2.90;;
26435;SDS011;15351;52.408;16.826;2023-08-12T09:44:35;8.40;;;3.10;;
26435;SDS011;15351;52.408;16.826;2023-08-12T09:47:13;6.60;;;3.00;;
26435;SDS011;15351;52.408;16.826;2023-08-12T14:10:28;4.00;;;3.10;;
26435;SDS011;15351;52.408;16.826;2023-08-12T14:13:04;4.80;;;3.00;;
26435;SDS011;15351;52.408;16.826;2023-08-12T14:15:54;5.30;;;3.10;;
26435;SDS011;15351;52.408;16.826;2023-08-12T14:18:22;6.90;;;3.00;;
26435;SDS011;15351;52.408;16.826;2023-08-12T14:20:58;4.00;;;2.90;;
26435;SDS011;15351;52.408;16.826;2023-08-12T14:23:29;4.50;;;3.20;;
26435;SDS011;15351;52.408;16.826;2023-08-12T14:25:56;4.60;;;2.80;;
26435;SDS011;15351;52.408;16.826;2023-08-12T14:28:27;5.20;;;2.90;;
26435;SDS011;15351;52.408;16.826;2023-08-12T14:31:00;6.70;;;3.00;;
26435;SDS011;15351;52.408;16.826;2023-08-12T14:33:29;5.30;;;2.60;;
26435;SDS011;15351;52.408;16.826;2023-08-12T14:36:04;4.90;;;2.60;;
26435;SDS011;15351;52.408;16.826;2023-08-12T14:38:34;4.80;;;2.80;;
26435;SDS011;15351;52.408;16.826;2023-08-12T14:41:01;4.70;;;2.70;;
26435;SDS011;15351;52.408;16.826;2023-08-12T14:43:39;4.00;;;2.60;;
26435;SDS011;15351;52.408;16.826;2023-08-12T14:46:06;5.10;;;2.80;;
26435;SDS011;15351;52.408;16.826;2023-08-12T14:48:33;6.20;;;3.00;;
26435;SDS011;15351;52.408;16.826;2023-08-12T14:51:00;4.50;;;2.70;;
26435;SDS011;15351;52.408;16.826;2023-08-12T14:53:28;4.40;;;2.50;;
26435;SDS011;15351;52.408;16.826;2023-08-12T14:55:55;3.70;;;2.40;;
26435;SDS011;15351;52.408;16.826;2023-08-12T14:58:22;2.70;;;2.40;;
26435;SDS011;15351;52.408;16.826;2023-08-12T15:00:51;4.00;;;2.50;;
26435;SDS011;15351;52.408;16.826;2023-08-12T15:03:18;5.20;;;2.40;;
26435;SDS011;15351;52.408;16.826;2023-08-12T15:05:45;3.10;;;2.40;;
26435;SDS011;15351;52.408;16.826;2023-08-12T15:08:14;4.90;;;2.60;;
26435;SDS011;15351;52.408;16.826;2023-08-12T15:10:42;3.90;;;2.40;;
26435;SDS011;15351;52.408;16.826;2023-08-12T15:13:09;4.00;;;2.50;;
26435;SDS011;15351;52.408;16.826;2023-08-12T15:15:38;3.90;;;2.30;;
26435;SDS011;15351;52.408;16.826;2023-08-12T15:18:07;3.20;;;2.60;;
26435;SDS011;15351;52.408;16.826;2023-08-12T15:20:34;3.80;;;2.40;;
26435;SDS011;15351;52.408;16.826;2023-08-12T15:23:03;3.40;;;2.60;;
26435;SDS011;15351;52.408;16.826;2023-08-12T15:25:42;5.80;;;2.60;;
26435;SDS011;15351;52.408;16.826;2023-08-12T15:28:11;5.90;;;2.50;;
26435;SDS011;15351;52.408;16.826;2023-08-12T15:30:58;6.20;;;2.40;;
26435;SDS011;15351;52.408;16.826;2023-08-12T15:33:25;4.30;;;2.50;;
26435;SDS011;15351;52.408;16.826;2023-08-12T15:36:04;4.20;;;2.60;;
26435;SDS011;15351;52.408;16.826;2023-08-12T15:38:41;4.00;;;2.50;;
26435;SDS011;15351;52.408;16.826;2023-08-12T15:41:11;3.70;;;2.50;;
26435;SDS011;15351;52.408;16.826;2023-08-12T15:43:42;4.10;;;2.50;;
26435;SDS011;15351;52.408;16.826;2023-08-12T15:46:31;3.10;;;2.60;;
26435;SDS011;15351;52.408;16.826;2023-08-12T15:48:58;4.70;;;2.60;;
26435;SDS011;15351;52.408;16.826;2023-08-12T15:51:26;4.40;;;2.40;;
26435;SDS011;15351;52.408;16.826;2023-08-12T15:53:54;5.00;;;2.50;;
26435;SDS011;15351;52.408;16.826;2023-08-12T15:56:27;4.70;;;2.60;;
26435;SDS011;15351;52.408;16.826;2023-08-12T15:59:00;3.70;;;2.40;;
26435;SDS011;15351;52.408;16.826;2023-08-12T16:01:28;4.10;;;2.80;;
26435;SDS011;15351;52.408;16.826;2023-08-12T16:03:58;4.60;;;3.10;;
26435;SDS011;15351;52.408;16.826;2023-08-12T16:06:50;3.40;;;2.70;;
26435;SDS011;15351;52.408;16.826;2023-08-12T16:09:16;3.60;;;2.90;;
26435;SDS011;15351;52.408;16.826;2023-08-12T16:11:48;3.70;;;2.60;;
26435;SDS011;15351;52.408;16.826;2023-08-12T16:14:15;5.10;;;2.70;;
26435;SDS011;15351;52.408;16.826;2023-08-12T16:16:42;4.70;;;2.70;;
26435;SDS011;15351;52.408;16.826;2023-08-12T16:19:10;4.00;;;2.70;;
26435;SDS011;15351;52.408;16.826;2023-08-12T16:21:38;4.30;;;2.60;;
26435;SDS011;15351;52.408;16.826;2023-08-12T16:24:08;4.00;;;2.80;;
26435;SDS011;15351;52.408;16.826;2023-08-12T16:26:35;3.60;;;2.70;;
26435;SDS011;15351;52.408;16.826;2023-08-12T16:29:02;6.30;;;3.00;;
26435;SDS011;15351;52.408;16.826;2023-08-12T16:31:29;5.40;;;2.70;;
26435;SDS011;15351;52.408;16.826;2023-08-12T16:36:39;5.80;;;2.50;;
26435;SDS011;15351;52.408;16.826;2023-08-12T16:39:12;3.90;;;2.60;;
26435;SDS011;15351;52.408;16.826;2023-08-12T16:41:40;5.70;;;2.50;;
26435;SDS011;15351;52.408;16.826;2023-08-12T16:44:09;3.90;;;2.70;;
26435;SDS011;15351;52.408;16.826;2023-08-12T16:46:36;4.60;;;2.80;;
26435;SDS011;15351;52.408;16.826;2023-08-12T16:49:03;5.70;;;2.70;;
26435;SDS011;15351;52.408;16.826;2023-08-12T16:51:31;3.90;;;2.70;;
26435;SDS011;15351;52.408;16.826;2023-08-12T16:53:59;6.10;;;3.00;;
26435;SDS011;15351;52.408;16.826;2023-08-12T16:56:46;4.30;;;2.90;;
26435;SDS011;15351;52.408;16.826;2023-08-12T16:59:16;3.70;;;2.90;;
26435;SDS011;15351;52.408;16.826;2023-08-12T17:01:46;4.00;;;2.70;;
26435;SDS011;15351;52.408;16.826;2023-08-12T17:04:31;5.10;;;2.90;;
26435;SDS011;15351;52.408;16.826;2023-08-12T17:07:08;6.60;;;3.10;;
26435;SDS011;15351;52.408;16.826;2023-08-12T17:09:46;6.80;;;2.90;;
26435;SDS011;15351;52.408;16.826;2023-08-12T17:12:33;6.10;;;3.00;;
26435;SDS011;15351;52.408;16.826;2023-08-12T17:15:06;5.50;;;3.00;;
26435;SDS011;15351;52.408;16.826;2023-08-12T17:18:16;4.90;;;2.90;;
26435;SDS011;15351;52.408;16.826;2023-08-12T17:20:45;4.60;;;3.00;;
26435;SDS011;15351;52.408;16.826;2023-08-12T17:23:32;3.40;;;2.80;;
26435;SDS011;15351;52.408;16.826;2023-08-12T17:26:07;4.90;;;2.90;;
26435;SDS011;15351;52.408;16.826;2023-08-12T17:29:20;4.60;;;3.00;;
26435;SDS011;15351;52.408;16.826;2023-08-12T17:32:12;4.10;;;2.90;;
26435;SDS011;15351;52.408;16.826;2023-08-12T17:34:56;4.60;;;2.90;;
26435;SDS011;15351;52.408;16.826;2023-08-12T17:37:34;5.40;;;2.80;;
26435;SDS011;15351;52.408;16.826;2023-08-12T17:40:10;4.70;;;2.70;;
26435;SDS011;15351;52.408;16.826;2023-08-12T17:42:58;4.20;;;2.60;;
26435;SDS011;15351;52.408;16.826;2023-08-12T17:46:15;5.30;;;2.80;;
26435;SDS011;15351;52.408;16.826;2023-08-12T17:49:09;3.00;;;2.60;;
26435;SDS011;15351;52.408;16.826;2023-08-12T17:52:10;4.30;;;2.50;;
26435;SDS011;15351;52.408;16.826;2023-08-12T17:54:45;3.20;;;2.40;;
26435;SDS011;15351;52.408;16.826;2023-08-12T17:57:16;5.20;;;2.90;;
26435;SDS011;15351;52.408;16.826;2023-08-12T17:59:43;3.40;;;2.40;;
26435;SDS011;15351;52.408;16.826;2023-08-12T18:02:13;5.80;;;2.70;;
26435;SDS011;15351;52.408;16.826;2023-08-12T18:05:00;4.40;;;2.50;;
26435;SDS011;15351;52.408;16.826;2023-08-12T18:07:33;5.90;;;2.70;;
26435;SDS011;15351;52.408;16.826;2023-08-12T18:10:16;4.70;;;2.80;;
26435;SDS011;15351;52.408;16.826;2023-08-12T18:15:41;4.20;;;2.90;;
26435;SDS011;15351;52.408;16.826;2023-08-12T18:18:31;5.80;;;3.00;;
26435;SDS011;15351;52.408;16.826;2023-08-12T18:20:58;2.90;;;2.60;;
26435;SDS011;15351;52.408;16.826;2023-08-12T18:23:25;7.00;;;3.20;;
26435;SDS011;15351;52.408;16.826;2023-08-12T18:25:56;5.00;;;2.90;;
26435;SDS011;15351;52.408;16.826;2023-08-12T18:28:28;7.50;;;3.00;;
26435;SDS011;15351;52.408;16.826;2023-08-12T18:31:05;8.20;;;3.10;;
26435;SDS011;15351;52.408;16.826;2023-08-12T18:33:32;4.60;;;2.90;;
26435;SDS011;15351;52.408;16.826;2023-08-12T18:36:23;8.50;;;3.10;;
26435;SDS011;15351;52.408;16.826;2023-08-12T18:39:02;4.70;;;2.90;;
26435;SDS011;15351;52.408;16.826;2023-08-12T18:41:29;3.90;;;2.70;;
26435;SDS011;15351;52.408;16.826;2023-08-12T18:43:56;5.10;;;3.00;;
26435;SDS011;15351;52.408;16.826;2023-08-12T18:46:23;5.90;;;3.00;;
26435;SDS011;15351;52.408;16.826;2023-08-12T18:48:54;5.60;;;2.80;;
26435;SDS011;15351;52.408;16.826;2023-08-12T18:51:34;8.00;;;3.10;;
26435;SDS011;15351;52.408;16.826;2023-08-12T18:54:10;7.30;;;3.30;;
26435;SDS011;15351;52.408;16.826;2023-08-12T18:56:38;6.40;;;3.20;;
26435;SDS011;15351;52.408;16.826;2023-08-12T18:59:05;4.10;;;3.00;;
26435;SDS011;15351;52.408;16.826;2023-08-12T19:01:52;5.60;;;3.20;;
26435;SDS011;15351;52.408;16.826;2023-08-12T19:04:23;6.50;;;3.30;;
26435;SDS011;15351;52.408;16.826;2023-08-12T19:06:51;6.20;;;3.30;;
26435;SDS011;15351;52.408;16.826;2023-08-12T19:09:18;7.70;;;3.50;;
26435;SDS011;15351;52.408;16.826;2023-08-12T19:11:49;7.40;;;3.50;;
26435;SDS011;15351;52.408;16.826;2023-08-12T19:14:27;5.50;;;3.10;;
26435;SDS011;15351;52.408;16.826;2023-08-12T19:16:58;4.80;;;3.20;;
26435;SDS011;15351;52.408;16.826;2023-08-12T19:19:25;5.60;;;3.30;;
26435;SDS011;15351;52.408;16.826;2023-08-12T19:21:54;6.80;;;3.40;;
26435;SDS011;15351;52.408;16.826;2023-08-12T19:24:24;6.80;;;3.60;;
26435;SDS011;15351;52.408;16.826;2023-08-12T19:26:51;9.40;;;3.40;;
26435;SDS011;15351;52.408;16.826;2023-08-12T19:29:23;7.60;;;3.40;;
26435;SDS011;15351;52.408;16.826;2023-08-12T19:32:00;5.20;;;3.40;;
26435;SDS011;15351;52.408;16.826;2023-08-12T19:34:40;6.30;;;3.20;;
26435;SDS011;15351;52.408;16.826;2023-08-12T19:37:20;6.40;;;3.30;;
26435;SDS011;15351;52.408;16.826;2023-08-12T19:39:53;4.50;;;3.50;;
26435;SDS011;15351;52.408;16.826;2023-08-12T19:42:23;8.00;;;3.80;;
26435;SDS011;15351;52.408;16.826;2023-08-12T19:44:57;5.10;;;3.50;;
26435;SDS011;15351;52.408;16.826;2023-08-12T19:47:29;6.90;;;3.50;;
26435;SDS011;15351;52.408;16.826;2023-08-12T19:50:18;6.10;;;3.70;;
26435;SDS011;15351;52.408;16.826;2023-08-12T19:52:45;7.10;;;3.50;;
26435;SDS011;15351;52.408;16.826;2023-08-12T19:55:12;5.30;;;3.60;;
26435;SDS011;15351;52.408;16.826;2023-08-12T19:57:39;5.40;;;3.40;;
26435;SDS011;15351;52.408;16.826;2023-08-12T20:00:09;7.10;;;3.80;;
26435;SDS011;15351;52.408;16.826;2023-08-12T20:02:51;8.30;;;4.30;;
26435;SDS011;15351;52.408;16.826;2023-08-12T20:05:19;6.20;;;3.70;;
26435;SDS011;15351;52.408;16.826;2023-08-12T20:07:54;4.20;;;3.50;;
26435;SDS011;15351;52.408;16.826;2023-08-12T20:10:25;4.90;;;3.40;;
26435;SDS011;15351;52.408;16.826;2023-08-12T20:12:53;6.20;;;3.80;;
26435;SDS011;15351;52.408;16.826;2023-08-12T20:15:29;7.60;;;3.60;;
26435;SDS011;15351;52.408;16.826;2023-08-12T20:17:56;6.90;;;3.90;;
26435;SDS011;15351;52.408;16.826;2023-08-12T20:20:35;7.60;;;3.70;;
26435;SDS011;15351;52.408;16.826;2023-08-12T20:23:09;7.20;;;3.60;;
26435;SDS011;15351;52.408;16.826;2023-08-12T20:25:36;5.50;;;3.50;;
26435;SDS011;15351;52.408;16.826;2023-08-12T20:28:10;4.90;;;3.60;;
26435;SDS011;15351;52.408;16.826;2023-08-12T20:30:40;6.90;;;3.90;;
26435;SDS011;15351;52.408;16.826;2023-08-12T20:35:51;6.20;;;3.80;;
26435;SDS011;15351;52.408;16.826;2023-08-12T20:38:27;6.10;;;3.50;;
26435;SDS011;15351;52.408;16.826;2023-08-12T20:40:57;9.10;;;4.00;;
26435;SDS011;15351;52.408;16.826;2023-08-12T20:43:28;7.40;;;3.80;;
26435;SDS011;15351;52.408;16.826;2023-08-12T20:46:00;8.10;;;4.00;;
26435;SDS011;15351;52.408;16.826;2023-08-12T20:48:36;6.80;;;4.00;;